Time;durP1;ratioP1;P1;durP2;ratioP2;P2;SDS_P1;SDS_P2;PMS_P1;PMS_P2;Temp;Humidity;BMP_temperature;BMP_pressure;BME280_temperature;BME280_humidity;BME280_pressure;Samples;Min_cycle;Max_cycle;Signal;HPM_P1;HPM_P2
2023/12/09 00:01:19;;;;;;;6.88;2.97;;;8.70;99.90;;;;;;5006179;28;20103;-73
2023/12/09 00:03:45;;;;;;;9.20;3.20;;;8.70;99.90;;;;;;5002963;28;20092;-73
2023/12/09 00:06:11;;;;;;;10.32;2.70;;;8.70;99.90;;;;;;5012014;28;20049;-73
2023/12/09 00:08:37;;;;;;;12.85;3.10;;;8.70;99.90;;;;;;5009825;28;20038;-73
2023/12/09 00:11:03;;;;;;;7.57;3.25;;;8.70;99.90;;;;;;5010413;28;20128;-73
2023/12/09 00:13:30;;;;;;;9.73;3.28;;;8.70;99.90;;;;;;5006990;28;20038;-73
2023/12/09 00:15:56;;;;;;;6.30;2.55;;;8.80;99.90;;;;;;4993624;28;20045;-73
2023/12/09 00:18:22;;;;;;;5.57;2.97;;;8.80;99.90;;;;;;5008379;28;20543;-73
2023/12/09 00:20:47;;;;;;;4.60;2.35;;;8.80;99.90;;;;;;5007089;28;20038;-73
2023/12/09 00:23:13;;;;;;;7.10;2.53;;;8.70;99.90;;;;;;5006838;28;20390;-73
2023/12/09 00:25:39;;;;;;;3.97;2.35;;;8.70;99.90;;;;;;5002575;28;20571;-74
2023/12/09 00:28:05;;;;;;;3.63;2.58;;;8.80;99.90;;;;;;5002198;28;20065;-73
2023/12/09 00:30:30;;;;;;;13.07;3.45;;;8.70;99.90;;;;;;5005185;28;20405;-73
2023/12/09 00:32:56;;;;;;;5.57;2.63;;;8.80;99.90;;;;;;5012974;28;20418;-73
2023/12/09 00:35:22;;;;;;;7.85;2.60;;;8.80;99.90;;;;;;5005588;28;20456;-73
2023/12/09 00:37:47;;;;;;;7.80;2.88;;;8.80;99.90;;;;;;4996503;28;20046;-73
2023/12/09 00:40:14;;;;;;;6.95;3.15;;;8.80;99.90;;;;;;4989779;28;20033;-72
2023/12/09 00:42:40;;;;;;;14.05;3.78;;;8.80;99.90;;;;;;4994121;28;20114;-73
2023/12/09 00:45:08;;;;;;;4.43;2.63;;;8.80;99.90;;;;;;4999410;28;20034;-73
2023/12/09 00:47:34;;;;;;;9.82;2.92;;;8.80;99.90;;;;;;4995458;28;20049;-74
2023/12/09 00:50:01;;;;;;;3.58;2.42;;;8.80;99.90;;;;;;4990887;28;20041;-73
2023/12/09 00:52:26;;;;;;;4.47;2.30;;;8.80;99.90;;;;;;5003602;28;20204;-73
2023/12/09 00:54:52;;;;;;;5.13;2.22;;;8.80;99.90;;;;;;5007070;28;20136;-73
2023/12/09 00:57:19;;;;;;;11.23;3.00;;;8.80;99.90;;;;;;5006379;28;20095;-73
2023/12/09 00:59:44;;;;;;;13.35;3.35;;;8.80;99.90;;;;;;5005340;28;20186;-73
2023/12/09 01:02:10;;;;;;;7.78;3.42;;;8.80;99.90;;;;;;4992987;28;20132;-72
2023/12/09 01:04:36;;;;;;;12.80;2.88;;;8.80;99.90;;;;;;4999123;28;20034;-72
2023/12/09 01:07:01;;;;;;;6.60;3.33;;;8.80;99.90;;;;;;5006553;28;20410;-73
2023/12/09 01:09:27;;;;;;;12.23;2.13;;;8.80;99.90;;;;;;5007529;28;20167;-73
2023/12/09 01:11:53;;;;;;;4.90;2.50;;;8.80;99.90;;;;;;5003879;28;20486;-73
2023/12/09 01:14:18;;;;;;;13.60;3.22;;;8.80;99.90;;;;;;5006348;28;20053;-73
2023/12/09 01:16:44;;;;;;;18.63;3.15;;;8.80;99.90;;;;;;5004923;28;20065;-73
2023/12/09 01:19:10;;;;;;;5.55;2.78;;;8.80;99.90;;;;;;4993971;28;20034;-73
2023/12/09 01:21:36;;;;;;;15.50;3.90;;;8.80;99.90;;;;;;5005236;28;20084;-73
2023/12/09 01:24:03;;;;;;;7.43;3.47;;;8.80;99.90;;;;;;4995665;28;20045;-72
2023/12/09 01:26:30;;;;;;;13.50;3.88;;;8.80;99.90;;;;;;5000491;28;20104;-73
2023/12/09 01:28:57;;;;;;;8.00;2.85;;;8.80;99.90;;;;;;4992206;28;20061;-73
2023/12/09 01:31:22;;;;;;;7.72;3.45;;;8.80;99.90;;;;;;5001263;28;20080;-73
2023/12/09 01:33:48;;;;;;;4.68;2.30;;;8.80;99.90;;;;;;5000719;28;20073;-73
2023/12/09 01:36:14;;;;;;;8.27;3.22;;;8.80;99.90;;;;;;5003721;28;20037;-73
2023/12/09 01:38:40;;;;;;;5.07;2.10;;;8.80;99.90;;;;;;5000790;28;20581;-73
2023/12/09 01:41:05;;;;;;;7.75;2.47;;;8.80;99.90;;;;;;5009357;28;20482;-73
2023/12/09 01:43:31;;;;;;;4.05;2.33;;;8.80;99.90;;;;;;5004855;28;20034;-73
2023/12/09 01:46:05;;;;;;;7.15;4.53;;;8.70;99.90;;;;;;5007288;28;20048;-73
2023/12/09 01:48:32;;;;;;;3.95;2.60;;;8.80;99.90;;;;;;5004469;28;20417;-72
2023/12/09 01:50:57;;;;;;;11.90;3.70;;;8.80;99.90;;;;;;5005667;28;20049;-74
2023/12/09 01:53:23;;;;;;;7.25;3.10;;;8.70;99.90;;;;;;5006471;28;20030;-73
2023/12/09 01:55:49;;;;;;;5.75;2.45;;;8.80;99.90;;;;;;5008773;28;20073;-73
2023/12/09 01:58:17;;;;;;;10.38;2.97;;;8.80;99.90;;;;;;5002970;28;20045;-72
2023/12/09 02:00:43;;;;;;;3.10;1.92;;;8.80;99.90;;;;;;5007733;28;20033;-73
2023/12/09 02:03:08;;;;;;;5.28;2.45;;;8.80;99.90;;;;;;5008510;28;20468;-73
2023/12/09 02:05:34;;;;;;;7.10;2.35;;;8.70;99.90;;;;;;5004139;28;20105;-72
2023/12/09 02:08:00;;;;;;;4.50;2.17;;;8.70;99.90;;;;;;4987028;28;20091;-73
2023/12/09 02:10:26;;;;;;;4.75;2.42;;;8.80;99.90;;;;;;5002906;28;20434;-73
2023/12/09 02:13:07;;;;;;;2.95;1.90;;;8.80;99.90;;;;;;5001207;28;20044;-72
2023/12/09 02:15:41;;;;;;;3.67;2.30;;;8.80;99.90;;;;;;5005289;28;20056;-73
2023/12/09 02:18:08;;;;;;;12.33;2.27;;;8.80;99.90;;;;;;5003025;28;20040;-73
2023/12/09 02:20:34;;;;;;;3.08;1.70;;;8.80;99.90;;;;;;5002166;28;20068;-72
2023/12/09 02:23:07;;;;;;;5.82;2.55;;;8.80;99.90;;;;;;5016239;28;20089;-72
2023/12/09 02:25:33;;;;;;;5.40;2.63;;;8.80;99.90;;;;;;5008636;28;20084;-72
2023/12/09 02:28:04;;;;;;;6.38;2.03;;;8.80;99.90;;;;;;5006391;28;20269;-73
2023/12/09 02:30:59;;;;;;;4.55;3.30;;;8.80;99.90;;;;;;5002937;28;20065;-73
2023/12/09 02:33:25;;;;;;;;;;;8.80;99.90;;;;;;5006808;28;20045;-73
2023/12/09 02:35:53;;;;;;;5.30;2.75;;;8.80;99.90;;;;;;5008207;28;19971;-73
2023/12/09 02:38:20;;;;;;;6.35;2.58;;;8.80;99.90;;;;;;5000115;28;20410;-73
2023/12/09 02:40:47;;;;;;;13.02;2.90;;;8.80;99.90;;;;;;4999043;28;20042;-73
2023/12/09 02:43:14;;;;;;;3.33;2.08;;;8.80;99.90;;;;;;5013509;28;20045;-72
2023/12/09 02:45:40;;;;;;;5.18;2.22;;;8.80;99.90;;;;;;5006387;28;20055;-73
2023/12/09 02:48:06;;;;;;;8.88;2.75;;;8.80;99.90;;;;;;5000575;28;20045;-74
2023/12/09 02:50:31;;;;;;;2.35;1.67;;;8.80;99.90;;;;;;4998145;28;20342;-72
2023/12/09 02:52:57;;;;;;;3.60;2.17;;;8.80;99.90;;;;;;5010481;28;20049;-72
2023/12/09 02:55:24;;;;;;;6.50;2.42;;;8.80;99.90;;;;;;5005412;28;20045;-73
2023/12/09 02:57:50;;;;;;;3.58;1.90;;;8.80;99.90;;;;;;5008137;28;20053;-73
2023/12/09 03:00:16;;;;;;;7.53;2.88;;;8.80;99.90;;;;;;4993086;28;20095;-73
2023/12/09 03:02:42;;;;;;;6.00;1.95;;;8.80;99.90;;;;;;5005237;28;20099;-72
2023/12/09 03:05:08;;;;;;;3.95;2.00;;;8.70;99.90;;;;;;5004430;28;20045;-73
2023/12/09 03:07:33;;;;;;;4.93;2.65;;;8.70;99.90;;;;;;4996786;28;20132;-72
2023/12/09 03:09:59;;;;;;;3.45;2.25;;;8.80;99.90;;;;;;5007298;28;20166;-73
2023/12/09 03:12:25;;;;;;;13.27;2.22;;;8.70;99.90;;;;;;5000723;28;20033;-72
2023/12/09 03:14:50;;;;;;;5.30;2.05;;;8.70;99.90;;;;;;5007866;28;20454;-73
2023/12/09 03:17:16;;;;;;;7.03;1.70;;;8.70;99.90;;;;;;5006360;28;20045;-73
2023/12/09 03:19:42;;;;;;;2.67;1.80;;;8.70;99.90;;;;;;5005870;28;20068;-73
2023/12/09 03:22:08;;;;;;;3.95;1.98;;;8.60;99.90;;;;;;5003117;28;20055;-73
2023/12/09 03:24:33;;;;;;;14.77;2.58;;;8.60;99.90;;;;;;5002450;28;20045;-72
2023/12/09 03:26:59;;;;;;;13.65;2.17;;;8.60;99.90;;;;;;4998316;28;20042;-73
2023/12/09 03:29:25;;;;;;;5.53;2.00;;;8.60;99.90;;;;;;5003531;28;20461;-73
2023/12/09 03:31:50;;;;;;;2.88;2.35;;;8.60;99.90;;;;;;4998240;28;20045;-73
2023/12/09 03:34:16;;;;;;;4.88;2.03;;;8.60;99.90;;;;;;5008072;28;20047;-73
2023/12/09 03:36:42;;;;;;;6.68;2.45;;;8.60;99.90;;;;;;5002616;28;20398;-73
2023/12/09 03:39:09;;;;;;;4.40;2.30;;;8.50;99.90;;;;;;4984397;28;20042;-72
2023/12/09 03:41:35;;;;;;;3.10;2.38;;;8.50;99.90;;;;;;4991936;28;20092;-73
2023/12/09 03:44:02;;;;;;;4.03;1.58;;;8.60;99.90;;;;;;5006634;28;20053;-73
2023/12/09 03:46:27;;;;;;;3.95;2.05;;;8.60;99.90;;;;;;4984537;28;20088;-72
2023/12/09 03:48:53;;;;;;;3.92;1.40;;;8.60;99.90;;;;;;5003707;28;20127;-73
2023/12/09 03:51:19;;;;;;;7.50;1.98;;;8.60;99.90;;;;;;4996665;28;20081;-72
2023/12/09 03:53:45;;;;;;;6.65;1.42;;;8.60;99.90;;;;;;4998063;28;20242;-73
2023/12/09 03:56:13;;;;;;;4.35;1.35;;;8.60;99.90;;;;;;5001456;28;20441;-72
2023/12/09 03:58:39;;;;;;;8.23;2.53;;;8.60;99.90;;;;;;5002329;28;20041;-73
2023/12/09 04:01:05;;;;;;;4.45;1.83;;;8.60;99.90;;;;;;4998794;28;20041;-72
2023/12/09 04:03:31;;;;;;;1.67;1.08;;;8.60;99.90;;;;;;5004125;28;20041;-73
2023/12/09 04:05:56;;;;;;;4.35;1.98;;;8.60;99.90;;;;;;5001068;28;20383;-72
2023/12/09 04:08:22;;;;;;;5.35;1.98;;;8.60;99.90;;;;;;5003877;28;20049;-72
2023/12/09 04:10:48;;;;;;;7.03;2.13;;;8.60;99.90;;;;;;5000019;28;20064;-72
2023/12/09 04:13:14;;;;;;;7.53;1.35;;;8.60;99.90;;;;;;5001412;28;20383;-72
2023/12/09 04:15:39;;;;;;;3.47;1.38;;;8.60;99.90;;;;;;5000354;28;20049;-73
2023/12/09 04:18:06;;;;;;;2.70;1.75;;;8.60;99.90;;;;;;5001214;28;20048;-72
2023/12/09 04:20:31;;;;;;;3.25;1.95;;;8.60;99.90;;;;;;5000922;28;20402;-72
2023/12/09 04:22:57;;;;;;;5.40;1.92;;;8.60;99.90;;;;;;4997861;28;20050;-72
2023/12/09 04:25:24;;;;;;;5.70;2.05;;;8.70;99.90;;;;;;5001044;28;20038;-72
2023/12/09 04:27:51;;;;;;;5.18;1.65;;;8.60;99.90;;;;;;5019493;28;20386;-72
2023/12/09 04:30:17;;;;;;;2.67;1.20;;;8.60;99.90;;;;;;5003033;28;20050;-73
2023/12/09 04:32:42;;;;;;;5.00;1.38;;;8.70;99.90;;;;;;5000551;28;20116;-72
2023/12/09 04:35:09;;;;;;;1.17;0.88;;;8.60;99.90;;;;;;5000447;28;20116;-72
2023/12/09 04:37:35;;;;;;;2.53;1.10;;;8.60;99.90;;;;;;5011893;28;20125;-72
2023/12/09 04:40:01;;;;;;;10.32;1.58;;;8.70;99.90;;;;;;5005118;28;20045;-72
2023/12/09 04:42:28;;;;;;;16.13;2.10;;;8.60;99.90;;;;;;4999737;28;20069;-72
2023/12/09 04:44:53;;;;;;;3.25;1.48;;;8.70;99.90;;;;;;5000612;28;20123;-72
2023/12/09 04:47:19;;;;;;;6.63;2.17;;;8.70;99.90;;;;;;4994030;28;20140;-72
2023/12/09 04:49:45;;;;;;;2.65;1.50;;;8.70;99.90;;;;;;5016264;28;20038;-72
2023/12/09 04:52:11;;;;;;;2.92;1.70;;;8.70;99.90;;;;;;5001741;28;20045;-73
2023/12/09 04:54:36;;;;;;;7.50;1.65;;;8.60;99.90;;;;;;4999121;28;20119;-72
2023/12/09 04:57:02;;;;;;;2.88;1.95;;;8.70;99.90;;;;;;5008705;28;20042;-72
2023/12/09 04:59:28;;;;;;;7.65;1.33;;;8.70;99.90;;;;;;5003842;28;20105;-72
2023/12/09 05:01:54;;;;;;;7.28;1.67;;;8.70;99.90;;;;;;4998626;28;20132;-72
2023/12/09 05:04:20;;;;;;;3.08;0.93;;;8.70;99.90;;;;;;5001153;28;20049;-72
2023/12/09 05:06:46;;;;;;;8.40;2.75;;;8.70;99.90;;;;;;5004443;28;20040;-71
2023/12/09 05:09:13;;;;;;;3.08;1.45;;;8.70;99.90;;;;;;5007016;28;20140;-73
2023/12/09 05:11:39;;;;;;;5.70;1.67;;;8.70;99.90;;;;;;4989906;28;20133;-73
2023/12/09 05:14:05;;;;;;;6.65;1.80;;;8.70;99.90;;;;;;5001981;28;20379;-73
2023/12/09 05:16:32;;;;;;;3.38;1.63;;;8.70;99.90;;;;;;5002517;28;20046;-73
2023/12/09 05:18:58;;;;;;;5.03;1.42;;;8.70;99.90;;;;;;5004863;28;20096;-72
2023/12/09 05:21:23;;;;;;;5.15;1.48;;;8.60;99.90;;;;;;5000589;28;20490;-73
2023/12/09 05:23:49;;;;;;;9.00;1.35;;;8.70;99.90;;;;;;5007098;28;20041;-72
2023/12/09 05:26:26;;;;;;;5.57;1.48;;;8.60;99.90;;;;;;5002051;28;20115;-72
2023/12/09 05:28:53;;;;;;;3.40;1.73;;;8.70;99.90;;;;;;5019470;28;20041;-72
2023/12/09 05:31:19;;;;;;;6.85;1.73;;;8.70;99.90;;;;;;5006077;28;20041;-72
2023/12/09 05:33:45;;;;;;;1.70;1.20;;;8.70;99.90;;;;;;5007343;28;20547;-73
2023/12/09 05:36:10;;;;;;;2.95;1.73;;;8.60;99.90;;;;;;4992807;28;20038;-73
2023/12/09 05:38:37;;;;;;;6.35;1.73;;;8.60;99.90;;;;;;5005680;28;20079;-73
2023/12/09 05:41:04;;;;;;;4.07;1.30;;;8.60;99.90;;;;;;5001709;28;20445;-73
2023/12/09 05:43:30;;;;;;;7.72;1.70;;;8.60;99.90;;;;;;5001785;28;20124;-72
2023/12/09 05:45:55;;;;;;;11.68;2.70;;;8.60;99.90;;;;;;5002761;28;20119;-73
2023/12/09 05:48:21;;;;;;;8.20;2.05;;;8.60;99.90;;;;;;4989241;28;20482;-73
2023/12/09 05:50:47;;;;;;;4.57;2.03;;;8.50;99.90;;;;;;4998397;28;20454;-73
2023/12/09 05:53:12;;;;;;;11.57;2.08;;;8.60;99.90;;;;;;5005705;28;20072;-72
2023/12/09 05:55:38;;;;;;;11.50;1.67;;;8.60;99.90;;;;;;5000649;28;20057;-72
2023/12/09 05:58:04;;;;;;;2.47;1.27;;;8.60;99.90;;;;;;5003873;28;20081;-72
2023/12/09 06:00:30;;;;;;;8.98;2.15;;;8.50;99.90;;;;;;5003237;28;20800;-73
2023/12/09 06:02:55;;;;;;;3.47;1.25;;;8.50;99.90;;;;;;5001144;28;20041;-73
2023/12/09 06:05:21;;;;;;;9.73;1.92;;;8.50;99.90;;;;;;5003428;28;20045;-73
2023/12/09 06:07:47;;;;;;;5.90;2.25;;;8.50;99.90;;;;;;4986068;28;20508;-73
2023/12/09 06:10:13;;;;;;;1.85;1.30;;;8.50;99.90;;;;;;4999595;28;20080;-73
2023/12/09 06:12:38;;;;;;;5.63;1.80;;;8.50;99.90;;;;;;4998864;28;20041;-73
2023/12/09 06:15:06;;;;;;;15.02;1.80;;;8.50;99.90;;;;;;4992868;28;20401;-73
2023/12/09 06:17:32;;;;;;;5.47;1.83;;;8.50;99.90;;;;;;5014455;28;20469;-73
2023/12/09 06:19:58;;;;;;;2.30;1.27;;;8.40;99.90;;;;;;5004976;28;20046;-72
2023/12/09 06:22:24;;;;;;;2.10;1.55;;;8.40;99.90;;;;;;4998301;28;20050;-72
2023/12/09 06:24:51;;;;;;;4.10;1.70;;;8.40;99.90;;;;;;4985962;28;20044;-72
2023/12/09 06:27:17;;;;;;;4.07;1.33;;;8.40;99.90;;;;;;4996000;28;20046;-72
2023/12/09 06:29:45;;;;;;;1.77;1.20;;;8.30;99.90;;;;;;5003000;28;20046;-72
2023/12/09 06:32:11;;;;;;;7.97;2.22;;;8.30;99.90;;;;;;5015942;28;20049;-72
2023/12/09 06:34:37;;;;;;;8.30;1.40;;;8.30;99.90;;;;;;5000917;28;20041;-72
2023/12/09 06:37:03;;;;;;;7.60;2.15;;;8.30;99.90;;;;;;5001762;28;20121;-73
2023/12/09 06:39:28;;;;;;;2.00;1.10;;;8.30;99.90;;;;;;5002302;28;20033;-73
2023/12/09 06:41:54;;;;;;;4.38;1.33;;;8.20;99.90;;;;;;5016667;28;20457;-73
2023/12/09 06:44:20;;;;;;;5.70;1.83;;;8.30;99.90;;;;;;5006306;28;20091;-73
2023/12/09 06:46:45;;;;;;;4.55;1.50;;;8.30;99.90;;;;;;4982979;28;20042;-73
2023/12/09 06:49:11;;;;;;;2.08;1.42;;;8.20;99.90;;;;;;5006446;28;20045;-72
2023/12/09 06:51:40;;;;;;;1.92;1.33;;;8.20;99.90;;;;;;5007707;28;20118;-72
2023/12/09 06:54:06;;;;;;;9.65;2.15;;;8.20;99.90;;;;;;5017682;28;20506;-73
2023/12/09 06:56:32;;;;;;;1.75;0.93;;;8.20;99.90;;;;;;5006374;28;20457;-73
2023/12/09 06:58:58;;;;;;;4.32;1.52;;;8.10;99.90;;;;;;4999913;28;20038;-72
2023/12/09 07:01:26;;;;;;;3.53;1.60;;;8.20;99.90;;;;;;5002167;28;20079;-72
2023/12/09 07:03:52;;;;;;;7.15;1.30;;;8.20;99.90;;;;;;4999405;28;20075;-73
2023/12/09 07:06:29;;;;;;;4.47;1.65;;;8.20;99.90;;;;;;5005902;28;20038;-73
2023/12/09 07:08:57;;;;;;;10.63;1.67;;;8.10;99.90;;;;;;5016825;28;20354;-73
2023/12/09 07:11:23;;;;;;;6.28;1.20;;;8.10;99.90;;;;;;5001255;28;20064;-73
2023/12/09 07:13:49;;;;;;;5.90;2.40;;;8.10;99.90;;;;;;5001804;28;20060;-73
2023/12/09 07:16:15;;;;;;;5.15;1.48;;;8.20;99.90;;;;;;4998386;28;20046;-73
2023/12/09 07:18:46;;;;;;;3.55;0.85;;;8.10;99.90;;;;;;5001010;28;20056;-73
2023/12/09 07:21:13;;;;;;;7.78;1.30;;;8.10;99.90;;;;;;4984355;28;20389;-73
2023/12/09 07:23:38;;;;;;;5.78;1.42;;;8.10;99.90;;;;;;5005677;28;20047;-72
2023/12/09 07:26:04;;;;;;;5.47;1.38;;;8.10;99.90;;;;;;4998425;28;20069;-72
2023/12/09 07:28:30;;;;;;;4.10;1.00;;;8.10;99.90;;;;;;4986614;28;20393;-73
2023/12/09 07:30:56;;;;;;;6.82;1.05;;;8.10;99.90;;;;;;5003203;28;20041;-72
2023/12/09 07:33:23;;;;;;;1.67;0.65;;;8.10;99.90;;;;;;4998046;28;20457;-73
2023/12/09 07:35:49;;;;;;;3.97;1.52;;;8.10;99.90;;;;;;4995562;28;20041;-72
2023/12/09 07:38:14;;;;;;;7.13;1.35;;;8.10;99.90;;;;;;4998970;28;20401;-73
2023/12/09 07:40:41;;;;;;;5.40;1.27;;;8.20;99.90;;;;;;5010255;28;20037;-73
2023/12/09 07:43:07;;;;;;;2.92;0.88;;;8.10;99.90;;;;;;5000237;28;20431;-72
2023/12/09 07:45:33;;;;;;;2.28;0.90;;;8.00;99.90;;;;;;5003861;28;20456;-72
2023/12/09 07:47:59;;;;;;;3.22;1.10;;;8.10;99.90;;;;;;4998520;28;20121;-72
2023/12/09 07:50:25;;;;;;;2.50;0.70;;;8.10;99.90;;;;;;4997890;28;20164;-72
2023/12/09 07:52:50;;;;;;;1.77;0.95;;;8.10;99.90;;;;;;5003214;28;20072;-73
2023/12/09 07:55:16;;;;;;;2.60;0.85;;;8.10;99.90;;;;;;5003400;28;20070;-73
2023/12/09 07:57:42;;;;;;;2.67;0.75;;;8.10;99.90;;;;;;4999393;28;20103;-73
2023/12/09 08:00:09;;;;;;;0.90;0.45;;;8.10;99.90;;;;;;4987974;28;20045;-73
2023/12/09 08:02:35;;;;;;;4.30;0.70;;;8.10;99.90;;;;;;5001790;28;20691;-73
2023/12/09 08:05:01;;;;;;;3.55;0.65;;;8.10;99.90;;;;;;5002724;28;20060;-73
2023/12/09 08:07:26;;;;;;;8.98;0.98;;;8.10;99.90;;;;;;5006846;28;20117;-71
2023/12/09 08:09:52;;;;;;;4.88;1.33;;;8.10;99.90;;;;;;5006108;28;20041;-72
2023/12/09 08:12:18;;;;;;;3.17;1.08;;;8.10;99.90;;;;;;5002292;28;20052;-72
2023/12/09 08:14:44;;;;;;;2.72;1.27;;;8.10;99.90;;;;;;5000930;28;20148;-72
2023/12/09 08:17:09;;;;;;;1.55;0.73;;;8.10;99.90;;;;;;5019569;28;20037;-72
2023/12/09 08:19:35;;;;;;;2.53;1.17;;;8.10;99.90;;;;;;5005292;28;20049;-72
2023/12/09 08:22:02;;;;;;;5.28;1.58;;;8.00;99.90;;;;;;5006980;28;20057;-72
2023/12/09 08:24:28;;;;;;;7.28;0.90;;;8.00;99.90;;;;;;5006304;28;20057;-72
2023/12/09 08:26:54;;;;;;;4.97;0.70;;;8.00;99.90;;;;;;5004312;28;20042;-72
2023/12/09 08:29:21;;;;;;;1.27;0.80;;;8.00;99.90;;;;;;5007588;28;20073;-73
2023/12/09 08:31:49;;;;;;;3.97;1.52;;;8.00;99.90;;;;;;4990166;28;20151;-72
2023/12/09 08:34:15;;;;;;;0.30;0.30;;;8.00;99.90;;;;;;5011470;28;20474;-72
2023/12/09 08:36:41;;;;;;;6.88;1.35;;;7.90;99.90;;;;;;4991114;28;20041;-72
2023/12/09 08:39:10;;;;;;;0.63;0.22;;;7.90;99.90;;;;;;5024176;28;20053;-72
2023/12/09 08:41:36;;;;;;;2.97;0.95;;;7.90;99.90;;;;;;5005205;28;20549;-72
2023/12/09 08:44:03;;;;;;;3.53;1.00;;;7.90;99.90;;;;;;5008426;28;20140;-72
2023/12/09 08:46:30;;;;;;;4.97;0.50;;;7.90;99.90;;;;;;5009535;28;20067;-72
2023/12/09 08:48:56;;;;;;;2.72;0.50;;;7.90;99.90;;;;;;4989947;28;20672;-72
2023/12/09 08:51:21;;;;;;;5.38;0.80;;;7.90;99.90;;;;;;5004910;28;20091;-72
2023/12/09 08:53:47;;;;;;;6.32;1.35;;;7.90;99.90;;;;;;5005727;28;20073;-72
2023/12/09 08:56:13;;;;;;;2.22;0.68;;;7.80;99.90;;;;;;5003125;28;20108;-72
2023/12/09 08:58:38;;;;;;;0.98;0.65;;;7.90;99.90;;;;;;5006311;28;20133;-72
2023/12/09 09:01:04;;;;;;;2.05;0.80;;;7.80;99.90;;;;;;5002555;28;20531;-72
2023/12/09 09:03:30;;;;;;;6.22;1.30;;;7.90;99.90;;;;;;4984892;28;20041;-72
2023/12/09 09:05:56;;;;;;;3.10;0.73;;;7.90;99.90;;;;;;5003418;28;20037;-72
2023/12/09 09:08:22;;;;;;;1.35;0.50;;;7.90;99.90;;;;;;5002985;28;20107;-72
2023/12/09 09:10:49;;;;;;;3.83;1.02;;;7.90;99.90;;;;;;5003695;28;20445;-72
2023/12/09 09:13:17;;;;;;;0.35;0.35;;;7.90;99.90;;;;;;4987186;28;20125;-72
2023/12/09 09:15:43;;;;;;;4.28;0.55;;;8.00;99.90;;;;;;5004068;28;20108;-71
2023/12/09 09:18:09;;;;;;;0.68;0.30;;;8.00;99.90;;;;;;4987288;28;20042;-72
2023/12/09 09:20:34;;;;;;;3.92;0.85;;;8.10;99.90;;;;;;4984913;28;20121;-72
2023/12/09 09:23:00;;;;;;;0.45;0.25;;;8.10;99.90;;;;;;5005071;28;20053;-72
2023/12/09 09:25:26;;;;;;;1.98;0.57;;;8.10;99.90;;;;;;4989047;28;20037;-72
2023/12/09 09:27:52;;;;;;;0.40;0.35;;;8.20;99.90;;;;;;4998492;28;20505;-72
2023/12/09 09:30:20;;;;;;;4.70;0.75;;;8.20;99.90;;;;;;5002728;28;20095;-72
2023/12/09 09:32:46;;;;;;;1.38;0.38;;;8.20;99.90;;;;;;5008138;28;20038;-72
2023/12/09 09:35:12;;;;;;;4.32;0.95;;;8.30;99.90;;;;;;5006202;28;20053;-72
2023/12/09 09:37:38;;;;;;;0.63;0.35;;;8.30;99.90;;;;;;4986839;28;20504;-72
2023/12/09 09:40:05;;;;;;;7.72;0.50;;;8.40;99.90;;;;;;5002941;28;20045;-72
2023/12/09 09:42:43;;;;;;;1.88;0.52;;;8.30;99.90;;;;;;5002484;28;20111;-72
2023/12/09 09:45:25;;;;;;;1.75;0.30;;;8.40;99.90;;;;;;5002990;28;20306;-72
2023/12/09 09:47:53;;;;;;;0.88;0.57;;;8.30;99.90;;;;;;5016101;28;20038;-72
2023/12/09 09:50:26;;;;;;;2.33;0.45;;;8.30;99.90;;;;;;4999591;28;20466;-72
2023/12/09 09:52:53;;;;;;;6.40;0.50;;;8.30;99.90;;;;;;5004128;28;20048;-72
2023/12/09 09:55:21;;;;;;;2.72;0.45;;;8.30;99.90;;;;;;4983104;28;20502;-72
2023/12/09 09:57:52;;;;;;;6.60;0.90;;;8.40;99.90;;;;;;4998717;28;20041;-72
2023/12/09 10:00:19;;;;;;;3.08;0.52;;;8.40;99.90;;;;;;5008039;28;20037;-72
2023/12/09 10:02:50;;;;;;;8.68;1.00;;;8.40;99.90;;;;;;5000796;28;20073;-72
2023/12/09 10:05:17;;;;;;;4.88;0.70;;;8.50;99.90;;;;;;4997430;28;20149;-72
2023/12/09 10:07:44;;;;;;;1.25;0.30;;;8.50;99.90;;;;;;5002529;28;20045;-72
2023/12/09 10:10:14;;;;;;;2.35;0.22;;;8.50;99.90;;;;;;5010402;28;20045;-72
2023/12/09 10:12:40;;;;;;;0.73;0.30;;;8.50;99.90;;;;;;5004867;28;20072;-72
2023/12/09 10:15:06;;;;;;;4.03;0.63;;;8.60;99.90;;;;;;4999611;28;20046;-72
2023/12/09 10:17:33;;;;;;;4.80;0.25;;;8.60;99.90;;;;;;5003952;28;20030;-72
2023/12/09 10:19:59;;;;;;;0.35;0.13;;;8.70;99.90;;;;;;5003336;28;20037;-73
2023/12/09 10:22:28;;;;;;;2.35;0.25;;;8.70;99.90;;;;;;5003862;28;20366;-72
2023/12/09 10:24:55;;;;;;;1.83;0.17;;;8.70;99.90;;;;;;4994410;28;20038;-72
2023/12/09 10:27:25;;;;;;;0.57;0.20;;;8.70;99.90;;;;;;4992471;28;20091;-72
2023/12/09 10:29:56;;;;;;;2.08;0.38;;;8.70;99.90;;;;;;5002506;28;20072;-72
2023/12/09 10:32:22;;;;;;;0.50;0.20;;;8.70;99.90;;;;;;5005018;28;20084;-72
2023/12/09 10:34:49;;;;;;;1.73;0.70;;;8.70;99.90;;;;;;5004484;28;20038;-72
2023/12/09 10:37:16;;;;;;;1.65;0.40;;;8.60;99.90;;;;;;5007479;28;20033;-73
2023/12/09 10:39:48;;;;;;;4.10;0.30;;;8.60;99.90;;;;;;5001413;28;20076;-72
2023/12/09 10:42:14;;;;;;;0.45;0.20;;;8.60;99.90;;;;;;5005186;28;20284;-72
2023/12/09 10:44:41;;;;;;;3.90;0.40;;;8.60;99.90;;;;;;4999096;28;20514;-72
2023/12/09 10:47:07;;;;;;;2.20;0.85;;;8.50;99.90;;;;;;5006221;28;20042;-72
2023/12/09 10:49:33;;;;;;;1.60;0.20;;;8.50;99.90;;;;;;5002018;28;20132;-73
2023/12/09 10:51:59;;;;;;;4.18;0.85;;;8.50;99.90;;;;;;5003094;28;20080;-72
2023/12/09 10:54:25;;;;;;;2.92;0.57;;;8.50;99.90;;;;;;5003450;28;20073;-72
2023/12/09 10:56:51;;;;;;;0.93;0.38;;;8.50;99.90;;;;;;4991299;28;20042;-72
2023/12/09 10:59:18;;;;;;;0.90;0.43;;;8.60;99.90;;;;;;4999024;28;20064;-72
2023/12/09 11:01:45;;;;;;;3.70;0.52;;;8.60;99.90;;;;;;5005227;28;20033;-72
2023/12/09 11:04:12;;;;;;;0.98;0.32;;;8.70;99.90;;;;;;5005615;28;20045;-72
2023/12/09 11:06:40;;;;;;;1.02;0.13;;;8.70;99.90;;;;;;5006148;28;20131;-72
2023/12/09 11:09:07;;;;;;;1.50;0.52;;;8.80;99.90;;;;;;4998876;28;20041;-72
2023/12/09 11:11:37;;;;;;;0.82;0.40;;;8.80;99.90;;;;;;5002507;28;20046;-72
2023/12/09 11:14:07;;;;;;;3.65;0.60;;;8.70;99.90;;;;;;5009859;28;20071;-73
2023/12/09 11:16:33;;;;;;;1.90;0.30;;;8.70;99.90;;;;;;5018788;28;20121;-73
2023/12/09 11:18:59;;;;;;;1.15;0.35;;;8.70;99.90;;;;;;4987613;28;20517;-72
2023/12/09 11:21:30;;;;;;;4.15;0.90;;;8.70;99.90;;;;;;4991029;28;20030;-72
2023/12/09 11:23:57;;;;;;;0.63;0.20;;;8.70;99.90;;;;;;4997838;28;20045;-72
2023/12/09 11:26:35;;;;;;;0.32;0.32;;;8.70;99.90;;;;;;5002014;28;20410;-72
2023/12/09 11:29:06;;;;;;;3.58;0.60;;;8.80;99.90;;;;;;5004398;28;20049;-72
2023/12/09 11:31:48;;;;;;;5.97;0.93;;;8.80;99.90;;;;;;5000535;28;20103;-73
2023/12/09 11:34:22;;;;;;;0.88;0.52;;;8.80;99.90;;;;;;5017370;28;20041;-72
2023/12/09 11:36:52;;;;;;;2.78;0.52;;;8.80;99.90;;;;;;4999894;28;20370;-72
2023/12/09 11:39:20;;;;;;;3.92;0.40;;;8.80;99.90;;;;;;5001867;28;20426;-72
2023/12/09 11:41:47;;;;;;;2.60;0.40;;;8.80;99.90;;;;;;4994067;28;20045;-73
2023/12/09 11:44:14;;;;;;;0.13;0.10;;;8.80;99.90;;;;;;4998379;28;20554;-72
2023/12/09 11:46:41;;;;;;;0.43;0.30;;;8.80;99.90;;;;;;5000313;28;20113;-72
2023/12/09 11:49:08;;;;;;;1.75;0.40;;;8.90;99.90;;;;;;5020218;28;20409;-72
2023/12/09 11:51:34;;;;;;;0.30;0.30;;;8.90;99.90;;;;;;5000090;28;20114;-73
2023/12/09 11:54:02;;;;;;;4.20;0.45;;;8.80;99.90;;;;;;5000043;28;20127;-72
2023/12/09 11:56:29;;;;;;;4.35;0.30;;;8.80;99.90;;;;;;4992177;28;20061;-72
2023/12/09 11:58:57;;;;;;;0.22;0.17;;;8.80;99.90;;;;;;5002616;28;20053;-73
2023/12/09 12:01:24;;;;;;;1.25;0.55;;;8.80;99.90;;;;;;4998581;28;20115;-72
2023/12/09 12:03:51;;;;;;;4.85;0.45;;;8.90;99.90;;;;;;5006945;28;20124;-73
2023/12/09 12:06:18;;;;;;;1.65;0.10;;;8.90;99.90;;;;;;5004667;28;20042;-73
2023/12/09 12:08:46;;;;;;;2.17;0.68;;;8.90;99.90;;;;;;5000502;28;20361;-72
2023/12/09 12:11:13;;;;;;;1.20;0.30;;;8.90;99.90;;;;;;5017608;28;20492;-72
2023/12/09 12:13:40;;;;;;;1.65;0.45;;;8.90;99.90;;;;;;5002039;28;20575;-72
2023/12/09 12:16:07;;;;;;;5.07;0.85;;;9.00;99.90;;;;;;4998684;28;20041;-72
2023/12/09 12:18:34;;;;;;;6.13;0.75;;;9.00;99.90;;;;;;5002798;28;20608;-72
2023/12/09 12:21:00;;;;;;;1.55;0.80;;;9.00;99.90;;;;;;4990524;28;20508;-72
2023/12/09 12:23:26;;;;;;;5.95;1.83;;;9.10;99.90;;;;;;5005845;28;20042;-73
2023/12/09 12:25:55;;;;;;;2.35;0.47;;;9.10;99.90;;;;;;5003692;28;20041;-73
2023/12/09 12:28:22;;;;;;;6.22;0.93;;;9.10;99.90;;;;;;4997176;28;20045;-73
2023/12/09 12:30:52;;;;;;;1.08;0.50;;;9.20;99.90;;;;;;4996180;28;20033;-72
2023/12/09 12:33:25;;;;;;;5.68;0.90;;;9.20;99.90;;;;;;5004703;28;20096;-73
2023/12/09 12:35:52;;;;;;;0.85;0.35;;;9.20;99.90;;;;;;5001130;28;20038;-73
2023/12/09 12:38:18;;;;;;;0.85;0.30;;;9.20;99.90;;;;;;5003660;28;20123;-73
2023/12/09 12:40:44;;;;;;;0.75;0.15;;;9.20;99.90;;;;;;5004646;28;20073;-73
2023/12/09 12:43:10;;;;;;;0.65;0.20;;;9.20;99.90;;;;;;4990616;28;20136;-73
2023/12/09 12:45:36;;;;;;;4.07;0.35;;;9.20;99.90;;;;;;4999407;28;20057;-73
2023/12/09 12:48:02;;;;;;;0.95;0.20;;;9.30;99.90;;;;;;5004460;28;20046;-73
2023/12/09 12:50:28;;;;;;;0.65;0.13;;;9.30;99.90;;;;;;4992261;28;20064;-74
2023/12/09 12:52:54;;;;;;;2.58;0.65;;;9.30;99.90;;;;;;5008673;28;20036;-73